createdAt,value
2022-10-12T02:26:57.873Z,3.05
2022-10-12T02:29:37.074Z,3.47
2022-10-12T02:32:40.259Z,3.30
2022-10-12T02:35:31.953Z,5.22
2022-10-12T02:38:08.020Z,4.53
2022-10-12T02:40:50.872Z,5.70
2022-10-12T02:43:39.028Z,5.68
2022-10-12T02:46:10.044Z,5.30
2022-10-12T02:48:40.744Z,4.97
2022-10-12T02:51:10.414Z,3.22
2022-10-12T02:53:38.890Z,3.97
2022-10-12T02:56:11.411Z,5.28
2022-10-12T02:58:39.507Z,4.82
2022-10-12T03:01:07.254Z,3.10
2022-10-12T03:03:34.821Z,3.10
2022-10-12T03:06:03.280Z,2.83
2022-10-12T03:08:30.920Z,3.13
2022-10-12T03:11:07.643Z,2.83
2022-10-12T03:13:35.611Z,2.42
2022-10-12T03:16:04.971Z,2.95
2022-10-12T03:18:33.033Z,3.42
2022-10-12T03:21:01.058Z,2.85
2022-10-12T03:23:29.140Z,3.05
2022-10-12T03:25:56.843Z,2.38
2022-10-12T03:28:24.621Z,2.65
2022-10-12T03:30:52.285Z,2.60
2022-10-12T03:33:20.236Z,2.45
2022-10-12T03:35:48.384Z,2.05
2022-10-12T03:38:17.199Z,2.38
2022-10-12T03:40:46.136Z,2.58
2022-10-12T03:43:14.271Z,2.63
2022-10-12T03:45:41.833Z,2.63
2022-10-12T03:48:10.130Z,2.33
2022-10-12T03:50:37.681Z,2.88
2022-10-12T03:53:05.801Z,2.75
2022-10-12T03:55:33.940Z,3.45
2022-10-12T03:58:01.473Z,3.08
2022-10-12T04:00:29.996Z,3.75
2022-10-12T04:02:57.801Z,3.70
2022-10-12T04:05:25.583Z,2.47
2022-10-12T04:07:53.153Z,3.88
2022-10-12T04:10:20.691Z,3.60
2022-10-12T04:12:48.249Z,3.20
2022-10-12T04:15:18.247Z,3.25
2022-10-12T04:17:46.067Z,3.53
2022-10-12T04:20:13.759Z,2.95
2022-10-12T04:22:41.323Z,3.17
2022-10-12T04:25:09.972Z,3.80
2022-10-12T04:27:38.099Z,2.95
2022-10-12T04:30:06.918Z,4.63
2022-10-12T04:32:37.188Z,5.20
2022-10-12T04:35:05.116Z,5.00
2022-10-12T04:37:32.604Z,3.80
2022-10-12T04:40:00.158Z,2.90
2022-10-12T04:42:27.657Z,2.78
2022-10-12T04:44:55.190Z,2.88
2022-10-12T04:47:22.882Z,3.85
2022-10-12T04:49:50.434Z,2.85
2022-10-12T04:52:17.901Z,2.95
2022-10-12T04:54:45.554Z,3.17
2022-10-12T04:57:13.036Z,4.32
2022-10-12T04:59:40.545Z,3.40
2022-10-12T05:02:08.229Z,4.15
2022-10-12T05:07:08.153Z,3.20
2022-10-12T05:09:35.640Z,3.17
2022-10-12T05:12:03.245Z,4.63
2022-10-12T05:14:35.123Z,4.10
2022-10-12T05:17:03.733Z,3.97
2022-10-12T05:19:31.302Z,4.05
2022-10-12T05:21:58.795Z,5.10
2022-10-12T05:24:26.521Z,4.25
2022-10-12T05:26:54.329Z,3.83
2022-10-12T05:29:21.925Z,3.38
2022-10-12T05:31:49.464Z,3.75
2022-10-12T05:34:17.155Z,4.25
2022-10-12T05:36:44.653Z,4.18
2022-10-12T05:39:12.194Z,4.10
2022-10-12T05:41:39.771Z,4.28
2022-10-12T05:44:07.392Z,3.72
2022-10-12T05:46:34.946Z,3.95
2022-10-12T05:49:02.633Z,4.25
2022-10-12T05:51:30.224Z,4.40
2022-10-12T05:53:57.727Z,3.97
2022-10-12T05:56:25.253Z,5.90
2022-10-12T05:58:52.808Z,5.78
2022-10-12T06:01:20.499Z,4.72
2022-10-12T06:03:48.117Z,3.35
2022-10-12T06:06:15.669Z,3.20
2022-10-12T06:08:43.181Z,3.65
2022-10-12T06:11:10.846Z,3.53
2022-10-12T06:13:38.379Z,4.55
2022-10-12T06:16:06.581Z,4.47
2022-10-12T06:18:34.125Z,4.20
2022-10-12T06:21:21.397Z,9.82
2022-10-12T06:23:49.485Z,6.80
2022-10-12T06:26:17.089Z,6.50
2022-10-12T06:28:44.990Z,11.45
2022-10-12T06:31:14.240Z,4.18
2022-10-12T06:33:42.155Z,3.40
2022-10-12T06:36:09.954Z,2.55
2022-10-12T06:38:37.490Z,2.92
2022-10-12T06:41:05.146Z,3.25
2022-10-12T06:43:32.676Z,3.33
2022-10-12T06:46:04.133Z,3.38
2022-10-12T06:48:31.788Z,2.80
2022-10-12T06:50:59.370Z,3.47
2022-10-12T06:53:32.956Z,3.80
2022-10-12T06:56:05.037Z,3.08
2022-10-12T06:58:32.584Z,2.53
2022-10-12T07:01:03.387Z,2.70
2022-10-12T07:03:31.053Z,3.45
2022-10-12T07:06:13.536Z,2.97
2022-10-12T07:08:42.180Z,2.95
2022-10-12T07:11:11.890Z,3.13
2022-10-12T07:13:39.934Z,3.10
2022-10-12T07:16:07.942Z,2.63
2022-10-12T07:18:35.749Z,3.13
2022-10-12T07:21:03.391Z,2.88
2022-10-12T07:23:32.968Z,2.63
2022-10-12T07:26:00.903Z,3.22
2022-10-12T07:28:28.568Z,2.95
2022-10-12T07:31:01.881Z,2.80
2022-10-12T07:33:33.133Z,3.35
2022-10-12T07:36:21.719Z,2.67
2022-10-12T07:38:50.187Z,2.45
2022-10-12T07:41:18.561Z,2.78
2022-10-12T07:43:46.164Z,2.88
2022-10-12T07:46:13.940Z,2.67
2022-10-12T07:48:45.607Z,2.55
2022-10-12T07:51:16.660Z,3.42
2022-10-12T07:53:44.301Z,2.47
2022-10-12T07:56:15.483Z,2.38
2022-10-12T07:59:03.400Z,2.05
2022-10-12T08:01:31.728Z,2.47
2022-10-12T08:04:01.762Z,3.05
2022-10-12T08:06:32.076Z,6.80
2022-10-12T08:09:00.807Z,3.70
2022-10-12T08:11:28.623Z,4.47
2022-10-12T08:13:56.338Z,4.35
2022-10-12T08:16:24.337Z,3.40
2022-10-12T08:18:52.112Z,2.03
2022-10-12T08:21:20.128Z,3.78
2022-10-12T08:23:47.819Z,4.10
2022-10-12T08:26:15.984Z,4.03
2022-10-12T08:28:44.227Z,3.80
2022-10-12T08:31:14.910Z,3.40
2022-10-12T08:33:42.564Z,3.33
2022-10-12T08:36:11.994Z,3.15
2022-10-12T08:38:39.685Z,3.90
2022-10-12T08:41:26.951Z,3.58
2022-10-12T08:44:23.418Z,3.08
2022-10-12T08:47:00.345Z,4.75
2022-10-12T08:49:30.014Z,3.65
2022-10-12T08:52:02.897Z,3.25
2022-10-12T08:54:41.485Z,2.92
2022-10-12T08:57:17.605Z,2.97
2022-10-12T08:59:46.640Z,3.20
2022-10-12T09:02:33.660Z,3.67
2022-10-12T09:05:10.843Z,3.35
2022-10-12T09:07:53.244Z,3.25
2022-10-12T09:10:43.373Z,3.08
2022-10-12T09:13:36.598Z,3.75
2022-10-12T09:16:19.718Z,3.10
2022-10-12T09:18:52.470Z,2.90
2022-10-12T09:21:22.087Z,3.03
2022-10-12T09:23:50.145Z,3.22
2022-10-12T09:26:37.424Z,3.65
2022-10-12T09:29:28.604Z,3.22
2022-10-12T09:32:18.137Z,3.25
2022-10-12T09:34:48.428Z,2.90
2022-10-12T09:37:20.969Z,3.15
2022-10-12T09:39:52.382Z,3.22
2022-10-12T09:42:22.872Z,3.58
2022-10-12T09:45:14.709Z,4.68
2022-10-12T09:47:43.091Z,2.97
2022-10-12T09:50:10.808Z,3.20
2022-10-12T09:52:45.716Z,2.83
2022-10-12T09:55:14.729Z,3.60
2022-10-12T09:57:55.265Z,3.50
2022-10-12T10:00:27.997Z,3.15
2022-10-12T10:02:59.645Z,2.65
2022-10-12T10:05:36.978Z,3.17
2022-10-12T10:08:27.124Z,2.42
2022-10-12T10:10:57.047Z,2.80
2022-10-12T10:13:28.999Z,2.70
2022-10-12T10:16:04.829Z,3.10
2022-10-12T10:18:45.160Z,2.88
2022-10-12T10:21:14.630Z,2.85
2022-10-12T10:23:50.827Z,3.08
2022-10-12T10:26:21.435Z,2.60
2022-10-12T10:28:56.515Z,2.42
2022-10-12T10:31:28.162Z,2.83
2022-10-12T10:34:19.008Z,2.67
2022-10-12T10:36:49.166Z,2.75
2022-10-12T10:39:21.587Z,2.85
2022-10-12T10:41:50.487Z,2.42
2022-10-12T10:44:25.472Z,2.67
2022-10-12T10:46:56.320Z,3.17
2022-10-12T10:49:38.790Z,3.00
2022-10-12T10:52:18.605Z,2.67
2022-10-12T10:54:46.447Z,3.03
2022-10-12T10:57:21.878Z,2.78
2022-10-12T11:00:26.111Z,2.20
2022-10-12T11:02:56.576Z,2.75
2022-10-12T11:05:28.736Z,2.50
2022-10-12T11:07:58.841Z,2.40
2022-10-12T11:10:42.969Z,2.38
2022-10-12T11:13:24.712Z,2.88
2022-10-12T11:16:01.032Z,1.88
2022-10-12T11:18:57.816Z,2.20
2022-10-12T11:21:59.247Z,2.10
2022-10-12T11:24:40.289Z,2.03
2022-10-12T11:27:31.420Z,2.17
2022-10-12T11:30:10.210Z,2.10
2022-10-12T11:32:46.036Z,2.13
2022-10-12T11:35:44.342Z,2.05
2022-10-12T11:38:26.946Z,2.45
2022-10-12T11:41:31.462Z,2.15
2022-10-12T11:44:05.392Z,2.28
2022-10-12T11:46:51.586Z,2.10
2022-10-12T11:49:47.196Z,2.40
2022-10-12T11:52:16.655Z,3.00
2022-10-12T11:54:52.900Z,3.15
2022-10-12T11:57:29.528Z,2.33
2022-10-12T12:00:02.970Z,2.22
2022-10-12T12:02:44.206Z,2.63
2022-10-12T12:05:17.226Z,2.13
2022-10-12T12:07:50.135Z,1.92
2022-10-12T12:10:27.731Z,2.20
2022-10-12T12:13:11.369Z,1.58
2022-10-12T12:15:40.541Z,2.58
2022-10-12T12:18:15.468Z,2.25
2022-10-12T12:20:43.155Z,2.58
2022-10-12T12:23:43.356Z,2.42
2022-10-12T12:26:16.055Z,1.95
2022-10-12T12:28:52.341Z,2.28
2022-10-12T12:31:22.889Z,1.92
2022-10-12T12:34:05.703Z,1.85
2022-10-12T12:36:40.834Z,2.60
2022-10-12T12:39:23.092Z,2.10
2022-10-12T12:42:00.588Z,1.63
2022-10-12T12:44:36.670Z,1.77
2022-10-12T12:47:11.750Z,1.67
2022-10-12T12:50:02.559Z,1.95
2022-10-12T12:52:39.855Z,1.52
2022-10-12T12:55:16.329Z,1.45
2022-10-12T12:57:49.104Z,2.25
2022-10-12T13:00:22.467Z,2.17
2022-10-12T13:03:08.071Z,2.22
2022-10-12T13:06:03.315Z,2.10
2022-10-12T13:08:36.877Z,2.53
2022-10-12T13:11:23.136Z,3.05
2022-10-12T13:14:21.640Z,2.85
2022-10-12T13:19:49.859Z,2.30
2022-10-12T13:22:26.414Z,2.20
2022-10-12T13:25:06.768Z,2.40
2022-10-12T13:27:46.683Z,2.20
2022-10-12T13:30:20.568Z,2.22
2022-10-12T13:33:24.626Z,1.92
2022-10-12T13:41:34.515Z,1.98
2022-10-12T13:44:06.072Z,2.20
2022-10-12T13:46:53.383Z,2.30
2022-10-12T13:49:28.757Z,1.95
2022-10-12T13:51:59.544Z,2.92
2022-10-12T13:54:39.263Z,1.95
2022-10-12T13:57:32.366Z,1.60
2022-10-12T14:00:15.354Z,2.38
2022-10-12T14:03:06.262Z,2.40
2022-10-12T14:05:42.622Z,2.42
2022-10-12T14:08:21.393Z,2.13
2022-10-12T14:10:49.636Z,2.30
2022-10-12T14:13:32.060Z,1.75
2022-10-12T14:16:02.084Z,2.42
2022-10-12T14:18:39.679Z,1.80
2022-10-12T14:21:23.631Z,1.92
2022-10-12T14:23:53.112Z,2.08
2022-10-12T14:26:40.329Z,2.45
2022-10-12T14:29:33.474Z,2.53
2022-10-12T14:32:07.684Z,2.35
2022-10-12T14:34:41.414Z,2.00
2022-10-12T14:37:09.248Z,2.40
2022-10-12T14:39:37.103Z,1.90
2022-10-12T14:42:30.309Z,2.50
2022-10-12T14:44:58.246Z,2.05
2022-10-12T14:47:27.715Z,1.42
2022-10-12T14:49:57.395Z,1.83
2022-10-12T14:52:46.545Z,2.03
2022-10-12T14:55:16.627Z,2.70
2022-10-12T14:57:44.535Z,3.20
2022-10-12T15:00:24.487Z,2.55
2022-10-12T15:02:52.221Z,2.88
2022-10-12T15:05:22.632Z,5.85
2022-10-12T15:07:51.049Z,4.90
2022-10-12T15:10:21.525Z,4.30
2022-10-12T15:12:49.685Z,4.32
2022-10-12T15:15:36.175Z,8.07
2022-10-12T15:18:03.920Z,2.20
2022-10-12T15:20:31.944Z,2.10
2022-10-12T15:23:00.157Z,2.42
2022-10-12T15:25:43.830Z,3.08
2022-10-12T15:28:11.473Z,3.30
2022-10-12T15:30:52.115Z,3.20
2022-10-12T15:33:25.627Z,2.38
2022-10-12T15:35:53.221Z,3.50
2022-10-12T15:38:20.882Z,4.30
2022-10-12T15:40:50.851Z,2.88
2022-10-12T15:43:19.076Z,4.38
2022-10-12T15:45:46.612Z,3.03
2022-10-12T15:48:14.115Z,2.78
2022-10-12T15:50:45.024Z,3.22
2022-10-12T15:53:20.372Z,4.47
2022-10-12T15:55:47.974Z,4.72
2022-10-12T15:58:15.761Z,4.07
2022-10-12T16:00:43.707Z,3.13
2022-10-12T16:03:22.932Z,3.80
2022-10-12T16:05:53.856Z,3.70
2022-10-12T16:08:21.429Z,4.13
2022-10-12T16:10:49.245Z,3.85
2022-10-12T16:13:17.665Z,3.80
2022-10-12T16:15:45.314Z,4.72
2022-10-12T16:18:15.635Z,4.68
2022-10-12T16:20:48.563Z,2.80
2022-10-12T16:23:25.477Z,4.70
2022-10-12T16:25:54.380Z,5.00
2022-10-12T16:28:23.747Z,3.05
2022-10-12T16:30:52.672Z,2.95
2022-10-12T16:33:20.422Z,2.70
2022-10-12T16:35:48.085Z,2.80
2022-10-12T16:38:16.182Z,2.88
2022-10-12T16:40:43.798Z,2.80
2022-10-12T16:43:11.707Z,2.72
2022-10-12T16:45:39.317Z,3.10
2022-10-12T16:48:06.958Z,2.90
2022-10-12T16:50:34.504Z,2.42
2022-10-12T16:53:02.032Z,2.30
2022-10-12T16:55:29.593Z,2.33
2022-10-12T16:57:57.108Z,2.47
2022-10-12T17:00:24.713Z,2.00
2022-10-12T17:02:57.271Z,2.20
2022-10-12T17:05:25.095Z,3.45
2022-10-12T17:07:52.587Z,4.90
2022-10-12T17:10:20.278Z,3.85
2022-10-12T17:12:47.799Z,3.80
2022-10-12T17:15:15.405Z,3.53
2022-10-12T17:17:42.959Z,3.38
2022-10-12T17:20:10.798Z,2.38
2022-10-12T17:22:38.443Z,3.25
2022-10-12T17:25:06.411Z,3.65
2022-10-12T17:27:46.298Z,2.63
2022-10-12T17:30:17.067Z,2.65
2022-10-12T17:32:44.740Z,2.28
2022-10-12T17:35:12.378Z,2.58
2022-10-12T17:37:40.010Z,2.65
2022-10-12T17:40:15.009Z,2.40
2022-10-12T17:42:42.607Z,2.50
2022-10-12T17:45:10.825Z,2.70
2022-10-12T17:47:39.345Z,2.78
2022-10-12T17:50:10.088Z,1.88
2022-10-12T17:52:42.050Z,3.70
2022-10-12T17:55:24.345Z,3.85
2022-10-12T17:58:00.608Z,8.95
2022-10-12T18:00:28.588Z,4.03
2022-10-12T18:02:56.886Z,3.88
2022-10-12T18:05:24.855Z,3.60
2022-10-12T18:07:52.545Z,3.30
2022-10-12T18:10:22.413Z,3.55
2022-10-12T18:12:52.669Z,2.45
2022-10-12T18:15:20.288Z,2.97
2022-10-12T18:17:47.820Z,2.13
2022-10-12T18:20:15.488Z,2.67
2022-10-12T18:22:43.041Z,2.38
2022-10-12T18:25:19.757Z,2.45
2022-10-12T18:27:50.307Z,2.38
2022-10-12T18:30:18.249Z,2.35
2022-10-12T18:32:48.363Z,2.40
2022-10-12T18:35:16.042Z,2.20
2022-10-12T18:37:44.108Z,2.60
2022-10-12T18:40:12.016Z,2.20
2022-10-12T18:42:39.557Z,2.47
2022-10-12T18:45:07.505Z,2.70
2022-10-12T18:47:39.404Z,2.35
2022-10-12T18:50:07.912Z,2.42
2022-10-12T18:52:35.542Z,2.40
2022-10-12T18:55:03.213Z,2.78
2022-10-12T18:57:32.762Z,2.42
2022-10-12T19:00:02.363Z,2.42
2022-10-12T19:02:29.926Z,2.72
2022-10-12T19:04:57.457Z,2.60
2022-10-12T19:07:25.319Z,2.83
2022-10-12T19:09:52.939Z,2.70
2022-10-12T19:12:21.244Z,2.80
2022-10-12T19:14:51.399Z,2.55
2022-10-12T19:17:18.964Z,3.60
2022-10-12T19:19:46.786Z,3.63
2022-10-12T19:22:14.317Z,3.47
2022-10-12T19:24:41.921Z,3.33
2022-10-12T19:27:09.859Z,2.88
2022-10-12T19:29:38.222Z,3.00
2022-10-12T19:32:07.883Z,2.85
2022-10-12T19:34:35.468Z,3.10
2022-10-12T19:37:03.166Z,3.03
2022-10-12T19:39:32.188Z,2.92
2022-10-12T19:41:59.788Z,3.22
2022-10-12T19:44:27.405Z,3.72
2022-10-12T19:46:55.029Z,3.88
2022-10-12T19:49:25.474Z,3.25
2022-10-12T19:51:52.988Z,3.08
2022-10-12T19:54:20.547Z,3.60
2022-10-12T19:56:48.124Z,3.13
2022-10-12T19:59:15.802Z,3.35
2022-10-12T20:01:47.849Z,2.90
2022-10-12T20:04:15.518Z,4.03
2022-10-12T20:06:43.221Z,3.92
2022-10-12T20:09:11.154Z,4.45
2022-10-12T20:11:39.118Z,4.38
2022-10-12T20:14:07.333Z,3.80
2022-10-12T20:16:35.579Z,2.85
2022-10-12T20:19:05.173Z,8.23
2022-10-12T20:21:33.548Z,7.50
2022-10-12T20:24:01.173Z,3.58
2022-10-12T20:26:28.971Z,3.35
2022-10-12T20:28:56.581Z,3.03
2022-10-12T20:31:24.853Z,3.17
2022-10-12T20:33:53.441Z,2.72
2022-10-12T20:36:23.859Z,2.55
2022-10-12T20:38:52.022Z,3.47
2022-10-12T20:41:21.796Z,3.20
2022-10-12T20:43:49.478Z,2.10
2022-10-12T20:46:18.764Z,3.15
2022-10-12T20:48:46.464Z,2.70
2022-10-12T20:51:28.963Z,2.55
2022-10-12T20:53:59.315Z,2.70
2022-10-12T20:56:28.496Z,2.90
2022-10-12T20:58:56.256Z,3.17
2022-10-12T21:01:25.521Z,3.53
2022-10-12T21:03:54.106Z,3.42
2022-10-12T21:06:23.530Z,3.10
2022-10-12T21:08:53.572Z,4.05
2022-10-12T21:11:21.844Z,3.50
2022-10-12T21:13:49.964Z,3.20
2022-10-12T21:16:18.104Z,3.30
2022-10-12T21:18:45.698Z,3.85
2022-10-12T21:21:18.862Z,3.90
2022-10-12T21:23:57.208Z,3.20
2022-10-12T21:26:27.300Z,2.83
2022-10-12T21:28:55.062Z,3.00
2022-10-12T21:31:23.387Z,2.55
2022-10-12T21:33:52.156Z,2.80
2022-10-12T21:36:22.128Z,3.05
2022-10-12T21:38:50.678Z,2.42
2022-10-12T21:41:21.133Z,2.22
2022-10-12T21:43:50.115Z,2.90
2022-10-12T21:46:27.562Z,2.30
2022-10-12T21:48:55.677Z,2.58
2022-10-12T21:51:24.517Z,3.20
2022-10-12T21:53:52.849Z,3.50
2022-10-12T21:56:26.287Z,3.20
2022-10-12T21:58:57.479Z,2.72
2022-10-12T22:01:28.069Z,2.88
2022-10-12T22:03:58.390Z,2.95
2022-10-12T22:06:27.831Z,3.13
2022-10-12T22:08:59.530Z,2.40
2022-10-12T22:11:30.085Z,2.90
2022-10-12T22:14:04.859Z,2.78
2022-10-12T22:16:32.847Z,3.75
2022-10-12T22:19:02.133Z,2.97
2022-10-12T22:21:36.404Z,2.07
2022-10-12T22:24:04.292Z,2.20
2022-10-12T22:26:31.951Z,2.10
2022-10-12T22:29:03.311Z,2.60
2022-10-12T22:31:31.343Z,2.50
2022-10-12T22:33:59.179Z,2.97
2022-10-12T22:36:28.963Z,2.40
2022-10-12T22:38:56.560Z,2.70
2022-10-12T22:41:24.692Z,2.67
2022-10-12T22:43:54.542Z,2.55
2022-10-12T22:46:23.844Z,2.22
2022-10-12T22:48:52.108Z,1.92
2022-10-12T22:51:25.515Z,2.10
2022-10-12T22:53:53.117Z,2.20
2022-10-12T22:56:20.738Z,2.05
2022-10-12T22:58:49.028Z,1.80
2022-10-12T23:01:17.771Z,2.55
2022-10-12T23:03:45.989Z,2.33
2022-10-12T23:06:16.374Z,2.35
2022-10-12T23:08:43.991Z,2.60
2022-10-12T23:11:17.228Z,2.47
2022-10-12T23:13:45.324Z,2.33
2022-10-12T23:16:24.687Z,2.58
2022-10-12T23:19:00.207Z,2.83
2022-10-12T23:21:29.573Z,2.10
2022-10-12T23:23:59.430Z,2.40
2022-10-12T23:26:28.412Z,2.30
2022-10-12T23:28:56.406Z,2.33
2022-10-12T23:31:26.980Z,2.05
2022-10-12T23:34:04.586Z,2.47
2022-10-12T23:36:34.736Z,2.55
2022-10-12T23:39:04.974Z,2.47
2022-10-12T23:41:32.899Z,1.90
2022-10-12T23:44:00.511Z,2.40
2022-10-12T23:46:28.123Z,2.13
2022-10-12T23:48:58.217Z,2.75
2022-10-12T23:51:25.833Z,1.80
2022-10-12T23:53:54.003Z,2.53
2022-10-12T23:56:21.544Z,2.00
2022-10-12T23:58:49.111Z,2.45
